Time;durP1;ratioP1;P1;durP2;ratioP2;P2;SDS_P1;SDS_P2;PMS_P1;PMS_P2;Temp;Humidity;BMP_temperature;BMP_pressure;BME280_temperature;BME280_humidity;BME280_pressure;Samples;Min_cycle;Max_cycle;Signal;HPM_P1;HPM_P2
2023/04/19 00:00:33;;;;;;;;;;;;;;;13.32;82.34;100623.69;5090068;28;19938;-54
2023/04/19 00:02:59;;;;;;;;;;;;;;;13.33;82.74;100625.47;5095805;28;19957;-54
2023/04/19 00:05:25;;;;;;;;;;;;;;;13.26;82.96;100621.25;5089484;28;19922;-54
2023/04/19 00:07:50;;;;;;;;;;;;;;;13.29;83.35;100615.78;5089893;28;20006;-54
2023/04/19 00:10:15;;;;;;;;;;;;;;;13.28;83.66;100617.59;5089661;28;20298;-54
2023/04/19 00:12:41;;;;;;;;;;;;;;;13.26;83.56;100624.81;5088347;28;19923;-54
2023/04/19 00:15:06;;;;;;;;;;;;;;;13.28;83.37;100619.41;5089436;28;20306;-54
2023/04/19 00:17:32;;;;;;;;;;;;;;;13.31;83.80;100620.16;5089118;28;19920;-54
2023/04/19 00:19:57;;;;;;;;;;;;;;;13.21;83.69;100611.56;5091173;28;19946;-54
2023/04/19 00:22:22;;;;;;;;;;;;;;;13.19;84.66;100610.75;5093297;28;19970;-54
2023/04/19 00:24:48;;;;;;;;;;;;;;;13.17;84.28;100612.63;5092182;28;19966;-54
2023/04/19 00:27:13;;;;;;;;;;;;;;;13.16;84.58;100610.84;5093143;28;20311;-54
2023/04/19 00:29:38;;;;;;;;;;;;;;;13.20;85.01;100609.84;5093046;28;19923;-53
2023/04/19 00:32:04;;;;;;;;;;;;;;;13.16;84.61;100610.84;5092183;28;19920;-54
2023/04/19 00:34:30;;;;;;;;;;;;;;;13.08;84.48;100614.69;5092769;28;20023;-54
2023/04/19 00:36:55;;;;;;;;;;;;;;;13.06;85.48;100609.41;5092237;28;19995;-54
2023/04/19 00:39:20;;;;;;;;;;;;;;;13.08;85.77;100607.56;5093098;28;19912;-54
2023/04/19 00:41:46;;;;;;;;;;;;;;;13.11;85.86;100607.47;5092845;28;19919;-54
2023/04/19 00:44:11;;;;;;;;;;;;;;;13.05;84.66;100606.78;5091393;28;20373;-54
2023/04/19 00:46:36;;;;;;;;;;;;;;;13.02;85.51;100605.13;5093043;28;20364;-54
2023/04/19 00:49:02;;;;;;;;;;;;;;;12.98;85.58;100608.75;5092214;28;19924;-54
2023/04/19 00:51:27;;;;;;;;;;;;;;;13.00;85.52;100598.91;5092931;28;20011;-54
2023/04/19 00:53:53;;;;;;;;;;;;;;;13.04;85.49;100608.63;5095169;28;19924;-54
2023/04/19 00:56:20;;;;;;;;;;;;;;;13.03;85.50;100612.19;5091776;28;19927;-54
2023/04/19 00:58:46;;;;;;;;;;;;;;;13.00;85.77;100611.38;5092260;28;19931;-54
2023/04/19 01:01:12;;;;;;;;;;;;;;;12.95;85.22;100606.19;5091522;28;19920;-54
2023/04/19 01:03:37;;;;;;;;;;;;;;;12.95;85.69;100610.66;5091574;28;20394;-54
2023/04/19 01:06:02;;;;;;;;;;;;;;;12.94;85.69;100607.13;5091081;28;19923;-54
2023/04/19 01:08:28;;;;;;;;;;;;;;;12.92;85.61;100608.09;5090028;28;19920;-54
2023/04/19 01:10:53;;;;;;;;;;;;;;;12.98;85.81;100600.75;5090219;28;20363;-54
2023/04/19 01:13:18;;;;;;;;;;;;;;;12.91;85.98;100598.34;5089007;28;19930;-54
2023/04/19 01:15:43;;;;;;;;;;;;;;;12.90;85.69;100589.47;5090169;28;19916;-54
2023/04/19 01:18:10;;;;;;;;;;;;;;;12.84;85.77;100596.78;5090939;28;19912;-54
2023/04/19 01:20:35;;;;;;;;;;;;;;;12.86;86.47;100582.50;5091023;28;19912;-54
2023/04/19 01:23:00;;;;;;;;;;;;;;;12.80;86.33;100582.66;5091957;28;19912;-54
2023/04/19 01:25:26;;;;;;;;;;;;;;;12.88;86.55;100590.44;5091054;28;20374;-54
2023/04/19 01:27:51;;;;;;;;;;;;;;;12.91;86.37;100582.31;5091603;28;19916;-54
2023/04/19 01:30:16;;;;;;;;;;;;;;;12.93;86.82;100584.00;5073998;28;19920;-54
2023/04/19 01:32:41;;;;;;;;;;;;;;;12.95;86.57;100581.28;5090663;28;20379;-54
2023/04/19 01:35:09;;;;;;;;;;;;;;;12.98;86.42;100578.53;5091340;28;19996;-54
2023/04/19 01:37:35;;;;;;;;;;;;;;;12.96;86.70;100580.38;5091833;28;19922;-54
2023/04/19 01:40:00;;;;;;;;;;;;;;;12.99;86.63;100583.81;5090967;28;20002;-54
2023/04/19 01:42:26;;;;;;;;;;;;;;;12.88;87.24;100580.63;5091502;28;19920;-54
2023/04/19 01:44:51;;;;;;;;;;;;;;;12.82;87.26;100575.50;5094199;28;19919;-54
2023/04/19 01:47:16;;;;;;;;;;;;;;;12.84;86.88;100580.78;5091582;28;19943;-54
2023/04/19 01:49:41;;;;;;;;;;;;;;;12.87;86.31;100578.00;5090580;28;19970;-54
2023/04/19 01:52:07;;;;;;;;;;;;;;;12.84;86.55;100573.66;5090815;28;19919;-54
2023/04/19 01:54:32;;;;;;;;;;;;;;;12.78;85.74;100573.81;5090239;28;20525;-54
2023/04/19 01:56:57;;;;;;;;;;;;;;;12.80;86.60;100569.31;5091286;28;19939;-54
2023/04/19 01:59:22;;;;;;;;;;;;;;;12.75;86.58;100573.94;5091849;28;19963;-54
2023/04/19 02:01:48;;;;;;;;;;;;;;;12.68;86.69;100564.41;5090444;28;19924;-54
2023/04/19 02:04:13;;;;;;;;;;;;;;;12.68;87.12;100563.53;5091276;28;19927;-54
2023/04/19 02:06:38;;;;;;;;;;;;;;;12.65;87.30;100561.81;5089302;28;19920;-54
2023/04/19 02:09:04;;;;;;;;;;;;;;;12.67;87.70;100561.75;5090130;28;20356;-54
2023/04/19 02:11:29;;;;;;;;;;;;;;;12.68;88.25;100556.41;5089760;28;20031;-54
2023/04/19 02:13:55;;;;;;;;;;;;;;;12.67;87.53;100551.97;5089019;28;19927;-54
2023/04/19 02:16:20;;;;;;;;;;;;;;;12.63;88.05;100552.13;5083722;28;19916;-54
2023/04/19 02:18:47;;;;;;;;;;;;;;;12.61;88.08;100557.50;5081594;28;19924;-54
2023/04/19 02:21:12;;;;;;;;;;;;;;;12.57;88.08;100547.00;5090767;28;20357;-54
2023/04/19 02:23:37;;;;;;;;;;;;;;;12.52;87.93;100555.13;5089057;28;19920;-54
2023/04/19 02:26:03;;;;;;;;;;;;;;;12.53;87.93;100551.53;5090532;28;20321;-54
2023/04/19 02:28:29;;;;;;;;;;;;;;;12.52;88.42;100549.78;5090710;28;19916;-54
2023/04/19 02:30:54;;;;;;;;;;;;;;;12.52;88.65;100555.13;5090019;28;19924;-54
2023/04/19 02:33:21;;;;;;;;;;;;;;;12.52;88.04;100547.13;5090822;28;19939;-54
2023/04/19 02:35:46;;;;;;;;;;;;;;;12.49;88.32;100549.00;5089923;28;19974;-54
2023/04/19 02:38:11;;;;;;;;;;;;;;;12.54;88.52;100550.63;5090739;28;19916;-54
2023/04/19 02:40:36;;;;;;;;;;;;;;;12.54;88.22;100547.06;5090466;28;19916;-54
2023/04/19 02:43:02;;;;;;;;;;;;;;;12.54;88.68;100544.38;5089821;28;19927;-54
2023/04/19 02:45:27;;;;;;;;;;;;;;;12.51;88.72;100547.16;5089666;28;19955;-54
2023/04/19 02:47:53;;;;;;;;;;;;;;;12.55;88.91;100543.50;5090198;28;19916;-54
2023/04/19 02:50:18;;;;;;;;;;;;;;;12.52;88.83;100541.78;5091478;28;19916;-54
2023/04/19 02:52:43;;;;;;;;;;;;;;;12.52;88.70;100536.44;5089555;28;19927;-54
2023/04/19 02:55:08;;;;;;;;;;;;;;;12.47;87.97;100543.72;5089709;28;19965;-54
2023/04/19 02:57:34;;;;;;;;;;;;;;;12.52;88.72;100543.59;5088638;28;19923;-54
2023/04/19 02:59:59;;;;;;;;;;;;;;;12.54;88.43;100547.06;5089706;28;20325;-54
2023/04/19 03:02:24;;;;;;;;;;;;;;;12.49;88.11;100549.88;5077171;28;20050;-54
2023/04/19 03:04:50;;;;;;;;;;;;;;;12.44;88.29;100546.50;5089782;28;19972;-54
2023/04/19 03:07:15;;;;;;;;;;;;;;;12.37;88.35;100544.06;5090048;28;19912;-54
2023/04/19 03:09:41;;;;;;;;;;;;;;;12.46;88.55;100541.09;5089460;28;19931;-53
2023/04/19 03:12:06;;;;;;;;;;;;;;;12.48;88.42;100536.59;5090327;28;19916;-54
2023/04/19 03:14:32;;;;;;;;;;;;;;;12.48;87.82;100532.16;5089203;28;19924;-54
2023/04/19 03:16:58;;;;;;;;;;;;;;;12.37;88.82;100539.59;5089516;28;19966;-54
2023/04/19 03:19:23;;;;;;;;;;;;;;;12.28;88.91;100534.56;5090367;28;20391;-53
2023/04/19 03:21:48;;;;;;;;;;;;;;;12.25;88.69;100529.31;5088540;28;19927;-54
2023/04/19 03:24:14;;;;;;;;;;;;;;;12.32;89.04;100525.53;5090866;28;19924;-54
2023/04/19 03:26:40;;;;;;;;;;;;;;;12.31;89.96;100529.13;5087664;28;19918;-54
2023/04/19 03:29:05;;;;;;;;;;;;;;;12.11;89.46;100493.34;5087366;28;20284;-54
2023/04/19 03:31:30;;;;;;;;;;;;;;;12.34;89.13;100525.50;5087365;28;19937;-54
2023/04/19 03:33:56;;;;;;;;;;;;;;;12.26;89.77;100525.72;5088290;28;19977;-54
2023/04/19 03:36:21;;;;;;;;;;;;;;;12.19;89.99;100518.81;5088437;28;20402;-54
2023/04/19 03:38:46;;;;;;;;;;;;;;;12.22;89.52;100524.09;5089931;28;19927;-54
2023/04/19 03:41:25;;;;;;;;;;;;;;;12.19;89.51;100518.81;5089253;28;19920;-53
2023/04/19 03:43:50;;;;;;;;;;;;;;;12.26;89.71;100525.72;5089955;28;19916;-54
2023/04/19 03:46:15;;;;;;;;;;;;;;;12.25;89.75;100523.09;5088570;28;19923;-54
2023/04/19 03:48:40;;;;;;;;;;;;;;;12.26;89.65;100519.50;5089665;28;19916;-54
2023/04/19 03:51:06;;;;;;;;;;;;;;;12.22;88.94;100518.75;5089464;28;19916;-54
2023/04/19 03:53:31;;;;;;;;;;;;;;;12.15;89.49;100517.19;5091371;28;19924;-54
2023/04/19 03:55:56;;;;;;;;;;;;;;;12.18;90.02;100516.22;5092040;28;20307;-54
2023/04/19 03:58:22;;;;;;;;;;;;;;;12.17;89.43;100517.16;5102990;28;19959;-54
2023/04/19 04:00:47;;;;;;;;;;;;;;;12.17;89.97;100512.69;5092644;28;19920;-54
2023/04/19 04:03:13;;;;;;;;;;;;;;;12.17;89.66;100517.16;5092316;28;19916;-54
2023/04/19 04:05:38;;;;;;;;;;;;;;;12.21;89.97;100511.66;5091750;28;19923;-54
2023/04/19 04:08:03;;;;;;;;;;;;;;;12.23;89.63;100517.81;5092977;28;19965;-54
2023/04/19 04:10:28;;;;;;;;;;;;;;;12.26;89.33;100514.19;5091579;28;19923;-53
2023/04/19 04:12:54;;;;;;;;;;;;;;;12.25;89.63;100518.66;5073118;28;19925;-54
2023/04/19 04:15:19;;;;;;;;;;;;;;;12.26;90.25;100520.38;5072122;28;20273;-54
2023/04/19 04:17:44;;;;;;;;;;;;;;;12.22;89.51;100520.53;5089424;28;20120;-54
2023/04/19 04:20:12;;;;;;;;;;;;;;;12.14;90.12;100517.25;5091493;28;19920;-54
2023/04/19 04:22:46;;;;;;;;;;;;;;;12.10;90.05;100524.47;5073777;28;19913;-54
2023/04/19 04:25:12;;;;;;;;;;;;;;;12.10;89.75;100520.91;5091729;28;19920;-54
2023/04/19 04:27:38;;;;;;;;;;;;;;;12.11;89.81;100517.34;5093119;28;19920;-54
2023/04/19 04:30:04;;;;;;;;;;;;;;;12.12;90.11;100516.41;5092395;28;19916;-54
2023/04/19 04:32:29;;;;;;;;;;;;;;;12.08;89.67;100520.97;5092892;28;19920;-54
2023/04/19 04:34:55;;;;;;;;;;;;;;;12.08;89.63;100520.09;5093452;28;19969;-54
2023/04/19 04:37:21;;;;;;;;;;;;;;;12.05;89.31;100526.41;5092352;28;19923;-54
2023/04/19 04:39:46;;;;;;;;;;;;;;;12.05;89.26;100521.06;5093019;28;19916;-54
2023/04/19 04:42:12;;;;;;;;;;;;;;;12.04;89.72;100529.13;5091558;28;20049;-54
2023/04/19 04:44:37;;;;;;;;;;;;;;;12.09;89.62;100528.06;5092377;28;20414;-54
2023/04/19 04:47:03;;;;;;;;;;;;;;;12.15;90.07;100526.97;5090413;28;19916;-54
2023/04/19 04:49:28;;;;;;;;;;;;;;;12.16;89.59;100529.59;5089202;28;19916;-54
2023/04/19 04:51:54;;;;;;;;;;;;;;;12.12;89.79;100533.28;5093929;28;19924;-54
2023/04/19 04:54:20;;;;;;;;;;;;;;;12.16;89.35;100534.94;5090987;28;19927;-54
2023/04/19 04:56:45;;;;;;;;;;;;;;;12.11;89.28;100531.53;5092360;28;20248;-54
2023/04/19 04:59:10;;;;;;;;;;;;;;;12.13;89.25;100534.16;5090383;28;19920;-54
2023/04/19 05:01:35;;;;;;;;;;;;;;;12.18;89.58;100527.75;5091838;28;19951;-54
2023/04/19 05:04:01;;;;;;;;;;;;;;;12.08;89.79;100533.41;5092162;28;19919;-54
2023/04/19 05:06:26;;;;;;;;;;;;;;;12.09;90.16;100533.41;5089163;28;19920;-54
2023/04/19 05:08:51;;;;;;;;;;;;;;;12.16;89.39;100534.94;5088877;28;19965;-54
2023/04/19 05:11:17;;;;;;;;;;;;;;;12.17;89.35;100534.03;5090771;28;19943;-54
2023/04/19 05:13:42;;;;;;;;;;;;;;;12.23;89.16;100538.28;5089901;28;20015;-54
2023/04/19 05:16:07;;;;;;;;;;;;;;;12.20;89.82;100525.03;5091237;28;19920;-54
2023/04/19 05:18:33;;;;;;;;;;;;;;;12.26;89.21;100535.50;5090490;28;19916;-54
2023/04/19 05:20:58;;;;;;;;;;;;;;;12.27;89.45;100534.59;5088917;28;19916;-54
2023/04/19 05:23:23;;;;;;;;;;;;;;;12.30;89.68;100538.06;5084229;28;19962;-55
2023/04/19 05:25:48;;;;;;;;;;;;;;;12.28;88.81;100534.56;5082198;28;20034;-54
2023/04/19 05:28:14;;;;;;;;;;;;;;;12.33;88.92;100537.97;5089533;28;19955;-54
2023/04/19 05:30:39;;;;;;;;;;;;;;;12.40;88.50;100533.31;5091475;28;20415;-54
2023/04/19 05:33:05;;;;;;;;;;;;;;;12.36;88.77;100542.31;5088468;28;19912;-54
2023/04/19 05:35:30;;;;;;;;;;;;;;;12.36;88.01;100543.19;5092729;28;19916;-54
2023/04/19 05:37:55;;;;;;;;;;;;;;;12.38;88.33;100536.03;5090589;28;19912;-54
2023/04/19 05:40:22;;;;;;;;;;;;;;;12.40;87.21;100542.19;5091473;28;19939;-54
2023/04/19 05:42:48;;;;;;;;;;;;;;;12.51;87.83;100537.38;5091930;28;20014;-55
2023/04/19 05:45:15;;;;;;;;;;;;;;;12.51;87.66;100539.16;5090812;28;20006;-54
2023/04/19 05:47:40;;;;;;;;;;;;;;;12.56;87.22;100546.09;5089329;28;20424;-54
2023/04/19 05:50:06;;;;;;;;;;;;;;;12.62;86.93;100545.91;5091091;28;19916;-54
2023/04/19 05:52:31;;;;;;;;;;;;;;;12.60;85.88;100539.72;5090795;28;20403;-54
2023/04/19 05:54:57;;;;;;;;;;;;;;;12.65;86.24;100540.44;5091024;28;19962;-54
2023/04/19 05:57:22;;;;;;;;;;;;;;;12.77;86.35;100537.38;5090712;28;20129;-54
2023/04/19 05:59:47;;;;;;;;;;;;;;;12.77;85.36;100540.06;5092358;28;19923;-54
2023/04/19 06:02:12;;;;;;;;;;;;;;;12.84;85.38;100546.94;5091438;28;19924;-54
2023/04/19 06:04:38;;;;;;;;;;;;;;;12.87;84.20;100546.84;5089435;28;19927;-54
2023/04/19 06:07:03;;;;;;;;;;;;;;;12.86;84.46;100545.09;5090283;28;20427;-54
2023/04/19 06:09:28;;;;;;;;;;;;;;;12.88;84.70;100550.41;5089707;28;19916;-54
2023/04/19 06:11:53;;;;;;;;;;;;;;;12.99;84.14;100543.78;5089290;28;20008;-55
2023/04/19 06:14:19;;;;;;;;;;;;;;;13.13;84.51;100549.53;5089497;28;19931;-54
2023/04/19 06:16:44;;;;;;;;;;;;;;;13.15;84.08;100553.03;5088826;28;19920;-55
2023/04/19 06:19:09;;;;;;;;;;;;;;;13.14;83.56;100550.41;5083418;28;20016;-54
2023/04/19 06:21:35;;;;;;;;;;;;;;;13.12;82.91;100553.13;5082382;28;19921;-54
2023/04/19 06:24:00;;;;;;;;;;;;;;;13.12;82.69;100552.25;5070754;28;19913;-54
2023/04/19 06:26:25;;;;;;;;;;;;;;;13.08;83.32;100551.50;5078036;28;19920;-54
2023/04/19 06:28:50;;;;;;;;;;;;;;;13.23;82.63;100553.63;5088767;28;19923;-54
2023/04/19 06:31:16;;;;;;;;;;;;;;;13.20;82.84;100544.84;5070032;28;20514;-55
2023/04/19 06:33:41;;;;;;;;;;;;;;;13.11;82.58;100554.03;5089581;28;19920;-54
2023/04/19 06:36:07;;;;;;;;;;;;;;;13.21;82.77;100546.63;5088862;28;19920;-54
2023/04/19 06:38:32;;;;;;;;;;;;;;;13.29;82.36;100554.34;5089671;28;20006;-54
2023/04/19 06:40:57;;;;;;;;;;;;;;;13.30;82.02;100561.41;5090640;28;19919;-54
2023/04/19 06:43:23;;;;;;;;;;;;;;;13.39;82.08;100556.66;5089663;28;19920;-54
2023/04/19 06:45:48;;;;;;;;;;;;;;;13.33;81.69;100558.66;5083731;28;19956;-54
2023/04/19 06:48:13;;;;;;;;;;;;;;;13.36;81.59;100554.06;5079228;28;20018;-54
2023/04/19 06:50:39;;;;;;;;;;;;;;;13.47;81.30;100554.56;5091154;28;19964;-54
2023/04/19 06:53:04;;;;;;;;;;;;;;;13.54;81.18;100571.25;5091332;28;20027;-54
2023/04/19 06:55:30;;;;;;;;;;;;;;;13.54;81.91;100561.44;5090301;28;19927;-54
2023/04/19 06:57:55;;;;;;;;;;;;;;;13.55;80.69;100562.31;5090250;28;19911;-54
2023/04/19 07:00:21;;;;;;;;;;;;;;;13.67;80.66;100551.19;5089401;28;19927;-54
2023/04/19 07:02:47;;;;;;;;;;;;;;;13.74;79.85;100553.56;5090181;28;19912;-54
2023/04/19 07:05:13;;;;;;;;;;;;;;;13.89;80.35;100565.47;5089357;28;19920;-55
2023/04/19 07:07:40;;;;;;;;;;;;;;;13.93;79.19;100553.75;5090101;28;19920;-54
2023/04/19 07:10:06;;;;;;;;;;;;;;;13.89;79.40;100552.13;5089992;28;19920;-54
2023/04/19 07:12:31;;;;;;;;;;;;;;;14.02;78.07;100559.63;5089717;28;19916;-54
2023/04/19 07:14:56;;;;;;;;;;;;;;;14.16;77.98;100559.09;5089461;28;20019;-54
2023/04/19 07:17:22;;;;;;;;;;;;;;;14.44;78.25;100549.09;5087835;28;20267;-54
2023/04/19 07:19:48;;;;;;;;;;;;;;;14.70;77.05;100554.28;5088255;28;19924;-54
2023/04/19 07:22:13;;;;;;;;;;;;;;;14.72;75.66;100549.72;5088363;28;19916;-55
2023/04/19 07:24:40;;;;;;;;;;;;;;;14.98;75.95;100549.53;5088686;28;19962;-54
2023/04/19 07:27:06;;;;;;;;;;;;;;;15.11;74.32;100540.03;5089008;28;19939;-54
2023/04/19 07:29:33;;;;;;;;;;;;;;;15.54;74.46;100536.38;5087130;28;20504;-54
2023/04/19 07:32:00;;;;;;;;;;;;;;;15.88;73.66;100544.63;5071580;28;19911;-55
2023/04/19 07:34:25;;;;;;;;;;;;;;;16.00;69.96;100538.72;5102854;28;19935;-54
2023/04/19 07:36:51;;;;;;;;;;;;;;;16.20;70.58;100540.47;5089700;28;19912;-54
2023/04/19 07:39:16;;;;;;;;;;;;;;;16.26;70.24;100540.19;5089765;28;19912;-54
2023/04/19 07:41:41;;;;;;;;;;;;;;;16.07;69.30;100537.50;5089068;28;19920;-55
2023/04/19 07:44:06;;;;;;;;;;;;;;;16.32;69.70;100531.84;5089439;28;20002;-54
2023/04/19 07:46:32;;;;;;;;;;;;;;;16.35;69.57;100539.75;5089176;28;19996;-54
2023/04/19 07:48:57;;;;;;;;;;;;;;;16.38;68.73;100539.59;5071412;28;19918;-54
2023/04/19 07:51:23;;;;;;;;;;;;;;;16.51;68.22;100535.41;5089734;28;19920;-54
2023/04/19 07:53:49;;;;;;;;;;;;;;;16.59;68.57;100544.84;5090149;28;19971;-54
2023/04/19 07:56:14;;;;;;;;;;;;;;;16.75;67.63;100542.28;5090319;28;20443;-54
2023/04/19 07:58:40;;;;;;;;;;;;;;;16.81;66.99;100544.66;5089802;28;19974;-54
2023/04/19 08:01:05;;;;;;;;;;;;;;;16.65;66.24;100549.03;5088028;28;19920;-54
2023/04/19 08:03:32;;;;;;;;;;;;;;;16.66;66.99;100550.78;5089819;28;19916;-54
2023/04/19 08:05:59;;;;;;;;;;;;;;;16.73;67.90;100542.34;5089045;28;19916;-54
2023/04/19 08:08:26;;;;;;;;;;;;;;;16.77;66.83;100543.94;5089830;28;20008;-54
2023/04/19 08:10:54;;;;;;;;;;;;;;;16.82;66.02;100531.13;5087297;28;19916;-55
2023/04/19 08:13:19;;;;;;;;;;;;;;;16.64;65.96;100536.53;5089422;28;19924;-54
2023/04/19 08:15:44;;;;;;;;;;;;;;;16.41;64.12;100528.69;5088941;28;20509;-54
2023/04/19 08:18:10;;;;;;;;;;;;;;;16.51;65.26;100524.66;5089876;28;19927;-54
2023/04/19 08:20:35;;;;;;;;;;;;;;;16.61;65.47;100526.84;5092032;28;19926;-54
2023/04/19 08:23:01;;;;;;;;;;;;;;;16.63;64.66;100526.75;5087574;28;19916;-54
2023/04/19 08:25:27;;;;;;;;;;;;;;;16.86;66.82;100526.47;5088311;28;19924;-55
2023/04/19 08:27:56;;;;;;;;;;;;;;;16.97;64.88;100527.69;5087578;28;19959;-54
2023/04/19 08:30:21;;;;;;;;;;;;;;;17.10;66.25;100525.22;5088352;28;19967;-54
2023/04/19 08:32:46;;;;;;;;;;;;;;;17.00;64.20;100524.84;5088268;28;19947;-54
2023/04/19 08:35:12;;;;;;;;;;;;;;;16.88;63.58;100519.22;5087405;28;19924;-54
2023/04/19 08:37:37;;;;;;;;;;;;;;;16.90;64.96;100528.09;5088830;28;20355;-54
2023/04/19 08:40:04;;;;;;;;;;;;;;;16.99;63.50;100527.59;5090716;28;19912;-54
2023/04/19 08:42:30;;;;;;;;;;;;;;;17.21;65.58;100517.50;5091918;28;20019;-54
2023/04/19 08:44:56;;;;;;;;;;;;;;;17.23;61.62;100523.69;5093156;28;19924;-54
2023/04/19 08:47:22;;;;;;;;;;;;;;;17.18;63.41;100523.06;5093110;28;19916;-54
2023/04/19 08:49:48;;;;;;;;;;;;;;;17.33;63.37;100516.00;5092938;28;19969;-54
2023/04/19 08:52:14;;;;;;;;;;;;;;;17.36;63.27;100522.09;5092035;28;19912;-54
2023/04/19 08:54:40;;;;;;;;;;;;;;;17.41;63.53;100514.66;5092527;28;19924;-55
2023/04/19 08:57:07;;;;;;;;;;;;;;;17.48;62.22;100516.09;5092767;28;19924;-54
2023/04/19 08:59:33;;;;;;;;;;;;;;;17.61;62.64;100525.25;5094961;28;19931;-54
2023/04/19 09:02:01;;;;;;;;;;;;;;;17.80;63.79;100531.41;5091516;28;19916;-54
2023/04/19 09:04:26;;;;;;;;;;;;;;;17.88;62.68;100526.47;5092485;28;19916;-54
2023/04/19 09:06:52;;;;;;;;;;;;;;;17.82;60.03;100521.44;5091910;28;19966;-54
2023/04/19 09:09:19;;;;;;;;;;;;;;;17.70;58.89;100522.06;5090310;28;19954;-54
2023/04/19 09:11:44;;;;;;;;;;;;;;;17.95;61.85;100517.13;5091310;28;19916;-54
2023/04/19 09:14:10;;;;;;;;;;;;;;;18.09;59.06;100514.50;5090671;28;19916;-55
2023/04/19 09:16:38;;;;;;;;;;;;;;;18.16;58.02;100510.53;5090638;28;19920;-55
2023/04/19 09:19:04;;;;;;;;;;;;;;;18.38;57.10;100505.66;5091167;28;19916;-54
2023/04/19 09:21:30;;;;;;;;;;;;;;;18.47;57.65;100508.84;5090961;28;19923;-54
2023/04/19 09:23:56;;;;;;;;;;;;;;;18.62;57.32;100514.22;5092185;28;19912;-55
2023/04/19 09:26:21;;;;;;;;;;;;;;;18.68;55.42;100507.63;5092005;28;20260;-54
2023/04/19 09:28:56;;;;;;;;;;;;;;;18.67;55.54;100495.06;5091900;28;19965;-54
2023/04/19 09:31:21;;;;;;;;;;;;;;;18.83;54.27;100490.56;5090951;28;20444;-54
2023/04/19 09:33:46;;;;;;;;;;;;;;;19.05;55.69;100491.00;5092319;28;20003;-54
2023/04/19 09:36:25;;;;;;;;;;;;;;;19.29;55.19;100484.19;5091234;28;19942;-55
2023/04/19 09:38:51;;;;;;;;;;;;;;;19.39;52.36;100491.59;5091515;28;20512;-54
2023/04/19 09:41:16;;;;;;;;;;;;;;;19.75;53.04;100483.09;5105301;28;19912;-54
2023/04/19 09:43:41;;;;;;;;;;;;;;;20.09;52.95;100477.28;5091735;28;19916;-55
2023/04/19 09:46:07;;;;;;;;;;;;;;;20.28;50.87;100477.84;5091072;28;19912;-54
2023/04/19 09:48:32;;;;;;;;;;;;;;;20.29;49.74;100482.28;5089829;28;19951;-54
2023/04/19 09:50:59;;;;;;;;;;;;;;;20.27;49.44;100469.84;5090252;28;19957;-54
2023/04/19 09:53:25;;;;;;;;;;;;;;;20.42;50.26;100467.00;5090341;28;19924;-55
2023/04/19 09:55:51;;;;;;;;;;;;;;;20.35;49.84;100468.38;5090901;28;20039;-54
2023/04/19 09:58:16;;;;;;;;;;;;;;;20.57;48.48;100457.03;5090058;28;20419;-54
2023/04/19 10:00:43;;;;;;;;;;;;;;;20.59;49.96;100455.09;5090910;28;20297;-55
2023/04/19 10:03:09;;;;;;;;;;;;;;;20.61;47.14;100463.94;5091346;28;20272;-55
2023/04/19 10:05:38;;;;;;;;;;;;;;;20.43;47.91;100457.03;5089501;28;19912;-55
2023/04/19 10:08:08;;;;;;;;;;;;;;;20.28;48.21;100452.69;5089025;28;20393;-54
2023/04/19 10:10:35;;;;;;;;;;;;;;;20.30;48.32;100443.50;5092960;28;20008;-55
2023/04/19 10:13:02;;;;;;;;;;;;;;;20.83;49.45;100446.19;5089488;28;20020;-55
2023/04/19 10:15:29;;;;;;;;;;;;;;;20.86;47.90;100445.97;5089824;28;19920;-55
2023/04/19 10:17:54;;;;;;;;;;;;;;;20.62;47.99;100442.25;5089363;28;19919;-54
2023/04/19 10:20:22;;;;;;;;;;;;;;;21.15;50.09;100443.16;5090890;28;19922;-54
2023/04/19 10:22:48;;;;;;;;;;;;;;;21.32;49.56;100438.28;5090253;28;19920;-55
2023/04/19 10:25:14;;;;;;;;;;;;;;;21.46;47.47;100435.50;5090916;28;19923;-54
2023/04/19 10:27:44;;;;;;;;;;;;;;;21.55;44.76;100440.25;5091270;28;19916;-55
2023/04/19 10:30:18;;;;;;;;;;;;;;;21.98;46.50;100430.81;5090171;28;19958;-54
2023/04/19 10:32:45;;;;;;;;;;;;;;;22.45;46.21;100419.19;5090908;28;19916;-55
2023/04/19 10:35:34;;;;;;;;;;;;;;;23.11;43.56;100424.91;5090032;28;20252;-54
2023/04/19 10:38:18;;;;;;;;;;;;;;;22.81;43.82;100416.44;5080137;28;19934;-55
2023/04/19 10:40:50;;;;;;;;;;;;;;;22.00;43.87;100430.69;5090433;28;19916;-54
2023/04/19 10:43:18;;;;;;;;;;;;;;;21.54;45.46;100418.69;5090559;28;20018;-55
2023/04/19 10:45:44;;;;;;;;;;;;;;;21.63;46.04;100412.66;5090476;28;19919;-55
2023/04/19 10:48:34;;;;;;;;;;;;;;;21.58;47.62;100418.38;5089027;28;19920;-54
2023/04/19 10:51:17;;;;;;;;;;;;;;;21.81;47.11;100411.34;5089402;28;20360;-55
2023/04/19 10:53:43;;;;;;;;;;;;;;;22.28;45.72;100405.13;5088563;28;20010;-54
2023/04/19 10:56:08;;;;;;;;;;;;;;;22.63;45.61;100404.28;5089003;28;19999;-55
2023/04/19 10:58:52;;;;;;;;;;;;;;;22.87;44.82;100402.38;5088443;28;19924;-54
2023/04/19 11:01:43;;;;;;;;;;;;;;;22.81;44.38;100397.44;5088274;28;19919;-55
2023/04/19 11:04:09;;;;;;;;;;;;;;;22.05;43.43;100404.13;5087723;28;20342;-55
2023/04/19 11:06:36;;;;;;;;;;;;;;;22.17;45.65;100390.53;5089364;28;19920;-55
2023/04/19 11:09:04;;;;;;;;;;;;;;;21.98;45.02;100403.72;5089272;28;19999;-55
2023/04/19 11:11:32;;;;;;;;;;;;;;;22.10;46.02;100388.41;5089428;28;19912;-55
2023/04/19 11:13:59;;;;;;;;;;;;;;;22.77;44.52;100387.78;5082367;28;19920;-55
2023/04/19 11:16:24;;;;;;;;;;;;;;;22.56;43.20;100396.69;5069118;28;20015;-55
2023/04/19 11:18:50;;;;;;;;;;;;;;;22.30;44.32;100382.38;5074814;28;20014;-55
2023/04/19 11:21:18;;;;;;;;;;;;;;;22.05;46.05;100382.47;5089101;28;19912;-54
2023/04/19 11:23:52;;;;;;;;;;;;;;;22.15;45.09;100380.81;5090114;28;19916;-54
2023/04/19 11:26:17;;;;;;;;;;;;;;;22.76;45.34;100375.22;5088858;28;19981;-55
2023/04/19 11:28:43;;;;;;;;;;;;;;;22.86;45.13;100380.81;5090083;28;19916;-55
2023/04/19 11:31:08;;;;;;;;;;;;;;;23.48;43.47;100368.59;5089213;28;19963;-54
2023/04/19 11:33:34;;;;;;;;;;;;;;;23.64;41.77;100362.81;5089743;28;19977;-55
2023/04/19 11:35:59;;;;;;;;;;;;;;;23.93;41.65;100358.59;5071539;28;20415;-55
2023/04/19 11:38:31;;;;;;;;;;;;;;;23.95;42.84;100362.91;5069662;28;20039;-55
2023/04/19 11:41:00;;;;;;;;;;;;;;;24.08;43.76;100362.78;5089186;28;19923;-55
2023/04/19 11:43:35;;;;;;;;;;;;;;;23.62;43.15;100351.22;5091230;28;19951;-55
2023/04/19 11:46:18;;;;;;;;;;;;;;;24.05;43.87;100352.19;5087892;28;20340;-55
2023/04/19 11:48:53;;;;;;;;;;;;;;;24.45;40.33;100339.69;5089005;28;20379;-55
2023/04/19 11:51:19;;;;;;;;;;;;;;;24.41;41.37;100340.97;5088345;28;20006;-55
2023/04/19 11:53:45;;;;;;;;;;;;;;;24.86;41.20;100350.66;5089780;28;20019;-55
2023/04/19 11:56:10;;;;;;;;;;;;;;;24.71;40.66;100343.84;5089699;28;19920;-55
2023/04/19 11:58:36;;;;;;;;;;;;;;;24.75;39.58;100337.13;5088518;28;19924;-55
2023/04/19 12:01:05;;;;;;;;;;;;;;;24.66;39.26;100338.72;5105598;28;19916;-55
2023/04/19 12:03:31;;;;;;;;;;;;;;;24.89;40.59;100325.91;5104692;28;19981;-55
2023/04/19 12:05:58;;;;;;;;;;;;;;;25.25;39.72;100336.31;5071473;28;20221;-55
2023/04/19 12:08:33;;;;;;;;;;;;;;;24.67;39.80;100329.63;5088483;28;19924;-55
2023/04/19 12:10:59;;;;;;;;;;;;;;;24.45;40.65;100331.53;5087987;28;19916;-55
2023/04/19 12:13:25;;;;;;;;;;;;;;;24.37;41.03;100336.75;5087153;28;19943;-55
2023/04/19 12:15:50;;;;;;;;;;;;;;;24.20;41.35;100324.56;5092048;28;20002;-55
2023/04/19 12:18:16;;;;;;;;;;;;;;;24.27;43.63;100327.63;5092738;28;19963;-55
2023/04/19 12:20:45;;;;;;;;;;;;;;;24.27;41.56;100319.47;5093389;28;19923;-55
2023/04/19 12:23:12;;;;;;;;;;;;;;;24.49;41.96;100330.28;5092733;28;19916;-55
2023/04/19 12:25:38;;;;;;;;;;;;;;;24.87;40.69;100325.19;5092210;28;19970;-55
2023/04/19 12:28:03;;;;;;;;;;;;;;;25.01;41.45;100324.00;5093367;28;19943;-55
2023/04/19 12:30:29;;;;;;;;;;;;;;;24.93;40.31;100321.91;5092369;28;19986;-55